sensor_id;sensor_type;location;lat;lon;timestamp;P1;durP1;ratioP1;P2;durP2;ratioP2
19006;SDS011;9636;47.382;8.480;2023-11-21T00:02:09;2.63;;;1.73;;
19006;SDS011;9636;47.382;8.480;2023-11-21T00:04:36;2.23;;;1.63;;
19006;SDS011;9636;47.382;8.480;2023-11-21T00:07:03;4.30;;;1.53;;
19006;SDS011;9636;47.382;8.480;2023-11-21T00:09:32;4.27;;;1.83;;
19006;SDS011;9636;47.382;8.480;2023-11-21T00:11:59;1.90;;;1.80;;
19006;SDS011;9636;47.382;8.480;2023-11-21T00:14:27;3.30;;;1.80;;
19006;SDS011;9636;47.382;8.480;2023-11-21T00:16:54;2.20;;;1.73;;
19006;SDS011;9636;47.382;8.480;2023-11-21T00:19:21;3.60;;;2.00;;
19006;SDS011;9636;47.382;8.480;2023-11-21T00:21:47;2.90;;;1.77;;
19006;SDS011;9636;47.382;8.480;2023-11-21T00:24:14;2.00;;;1.50;;
19006;SDS011;9636;47.382;8.480;2023-11-21T00:26:42;1.57;;;1.43;;
19006;SDS011;9636;47.382;8.480;2023-11-21T00:29:09;3.20;;;1.87;;
19006;SDS011;9636;47.382;8.480;2023-11-21T00:31:36;3.73;;;1.60;;
19006;SDS011;9636;47.382;8.480;2023-11-21T00:34:03;2.20;;;1.53;;
19006;SDS011;9636;47.382;8.480;2023-11-21T00:36:30;2.03;;;1.40;;
19006;SDS011;9636;47.382;8.480;2023-11-21T00:38:57;1.63;;;1.50;;
19006;SDS011;9636;47.382;8.480;2023-11-21T00:41:24;3.47;;;1.60;;
19006;SDS011;9636;47.382;8.480;2023-11-21T00:43:54;1.80;;;1.40;;
19006;SDS011;9636;47.382;8.480;2023-11-21T00:46:20;2.03;;;1.60;;
19006;SDS011;9636;47.382;8.480;2023-11-21T00:48:49;2.67;;;1.70;;
19006;SDS011;9636;47.382;8.480;2023-11-21T00:51:16;2.30;;;1.60;;
19006;SDS011;9636;47.382;8.480;2023-11-21T00:53:42;3.40;;;1.70;;
19006;SDS011;9636;47.382;8.480;2023-11-21T00:56:09;2.20;;;1.50;;
19006;SDS011;9636;47.382;8.480;2023-11-21T00:58:36;2.27;;;1.47;;
19006;SDS011;9636;47.382;8.480;2023-11-21T01:01:04;2.13;;;1.53;;
19006;SDS011;9636;47.382;8.480;2023-11-21T01:03:31;1.83;;;1.47;;
19006;SDS011;9636;47.382;8.480;2023-11-21T01:05:58;1.90;;;1.70;;
19006;SDS011;9636;47.382;8.480;2023-11-21T01:08:24;2.43;;;1.60;;
19006;SDS011;9636;47.382;8.480;2023-11-21T01:10:51;1.80;;;1.40;;
19006;SDS011;9636;47.382;8.480;2023-11-21T01:13:18;1.47;;;1.37;;
19006;SDS011;9636;47.382;8.480;2023-11-21T01:15:46;3.10;;;1.40;;
19006;SDS011;9636;47.382;8.480;2023-11-21T01:18:14;2.53;;;1.60;;
19006;SDS011;9636;47.382;8.480;2023-11-21T01:20:41;1.93;;;1.60;;
19006;SDS011;9636;47.382;8.480;2023-11-21T01:23:07;2.30;;;1.50;;
19006;SDS011;9636;47.382;8.480;2023-11-21T01:25:34;2.10;;;1.50;;
19006;SDS011;9636;47.382;8.480;2023-11-21T01:28:01;2.07;;;1.50;;
19006;SDS011;9636;47.382;8.480;2023-11-21T01:30:28;2.43;;;1.60;;
19006;SDS011;9636;47.382;8.480;2023-11-21T01:32:54;1.53;;;1.43;;
19006;SDS011;9636;47.382;8.480;2023-11-21T01:35:23;2.67;;;1.40;;
19006;SDS011;9636;47.382;8.480;2023-11-21T01:37:48;1.70;;;1.50;;
19006;SDS011;9636;47.382;8.480;2023-11-21T01:40:15;1.30;;;1.20;;
19006;SDS011;9636;47.382;8.480;2023-11-21T01:42:42;3.07;;;1.40;;
19006;SDS011;9636;47.382;8.480;2023-11-21T01:45:11;2.30;;;1.50;;
19006;SDS011;9636;47.382;8.480;2023-11-21T01:47:39;2.33;;;1.63;;
19006;SDS011;9636;47.382;8.480;2023-11-21T01:50:08;1.77;;;1.37;;
19006;SDS011;9636;47.382;8.480;2023-11-21T01:52:38;1.63;;;1.40;;
19006;SDS011;9636;47.382;8.480;2023-11-21T01:55:06;1.30;;;1.20;;
19006;SDS011;9636;47.382;8.480;2023-11-21T01:57:35;1.17;;;1.10;;
19006;SDS011;9636;47.382;8.480;2023-11-21T02:00:04;1.53;;;1.27;;
19006;SDS011;9636;47.382;8.480;2023-11-21T02:02:40;1.83;;;1.30;;
19006;SDS011;9636;47.382;8.480;2023-11-21T02:05:06;1.43;;;1.23;;
19006;SDS011;9636;47.382;8.480;2023-11-21T02:07:34;1.50;;;1.40;;
19006;SDS011;9636;47.382;8.480;2023-11-21T02:10:04;2.10;;;1.10;;
19006;SDS011;9636;47.382;8.480;2023-11-21T02:12:32;2.47;;;1.50;;
19006;SDS011;9636;47.382;8.480;2023-11-21T02:15:00;1.30;;;1.13;;
19006;SDS011;9636;47.382;8.480;2023-11-21T02:17:27;1.87;;;1.27;;
19006;SDS011;9636;47.382;8.480;2023-11-21T02:19:55;1.93;;;1.20;;
19006;SDS011;9636;47.382;8.480;2023-11-21T02:22:21;2.30;;;1.40;;
19006;SDS011;9636;47.382;8.480;2023-11-21T02:24:52;2.33;;;1.33;;
19006;SDS011;9636;47.382;8.480;2023-11-21T02:27:19;1.63;;;1.33;;
19006;SDS011;9636;47.382;8.480;2023-11-21T02:29:48;2.40;;;1.47;;
19006;SDS011;9636;47.382;8.480;2023-11-21T02:32:15;1.30;;;1.20;;
19006;SDS011;9636;47.382;8.480;2023-11-21T02:34:44;1.40;;;1.30;;
19006;SDS011;9636;47.382;8.480;2023-11-21T02:37:11;1.47;;;1.20;;
19006;SDS011;9636;47.382;8.480;2023-11-21T02:39:38;1.77;;;1.40;;
19006;SDS011;9636;47.382;8.480;2023-11-21T02:42:06;1.67;;;1.20;;
19006;SDS011;9636;47.382;8.480;2023-11-21T02:44:33;1.70;;;1.23;;
19006;SDS011;9636;47.382;8.480;2023-11-21T02:47:00;1.37;;;1.23;;
19006;SDS011;9636;47.382;8.480;2023-11-21T02:49:27;3.10;;;1.50;;
19006;SDS011;9636;47.382;8.480;2023-11-21T02:51:54;2.43;;;1.43;;
19006;SDS011;9636;47.382;8.480;2023-11-21T02:54:21;1.73;;;1.10;;
19006;SDS011;9636;47.382;8.480;2023-11-21T02:56:48;1.97;;;1.30;;
19006;SDS011;9636;47.382;8.480;2023-11-21T02:59:16;1.43;;;1.17;;
19006;SDS011;9636;47.382;8.480;2023-11-21T03:01:44;1.83;;;1.10;;
19006;SDS011;9636;47.382;8.480;2023-11-21T03:04:11;1.43;;;1.20;;
19006;SDS011;9636;47.382;8.480;2023-11-21T03:06:43;1.63;;;1.10;;
19006;SDS011;9636;47.382;8.480;2023-11-21T03:09:10;1.53;;;1.40;;
19006;SDS011;9636;47.382;8.480;2023-11-21T03:11:38;2.00;;;1.40;;
19006;SDS011;9636;47.382;8.480;2023-11-21T03:14:05;1.40;;;1.30;;
19006;SDS011;9636;47.382;8.480;2023-11-21T03:16:33;2.83;;;1.27;;
19006;SDS011;9636;47.382;8.480;2023-11-21T03:19:00;1.60;;;1.20;;
19006;SDS011;9636;47.382;8.480;2023-11-21T03:21:27;1.57;;;1.30;;
19006;SDS011;9636;47.382;8.480;2023-11-21T03:23:54;1.43;;;1.30;;
19006;SDS011;9636;47.382;8.480;2023-11-21T03:26:21;1.40;;;1.20;;
19006;SDS011;9636;47.382;8.480;2023-11-21T03:28:48;2.10;;;1.23;;
19006;SDS011;9636;47.382;8.480;2023-11-21T03:31:15;1.30;;;1.20;;
19006;SDS011;9636;47.382;8.480;2023-11-21T03:33:45;1.07;;;0.97;;
19006;SDS011;9636;47.382;8.480;2023-11-21T03:36:12;2.00;;;1.20;;
19006;SDS011;9636;47.382;8.480;2023-11-21T03:38:39;1.70;;;1.33;;
19006;SDS011;9636;47.382;8.480;2023-11-21T03:41:06;1.03;;;0.93;;
19006;SDS011;9636;47.382;8.480;2023-11-21T03:43:35;1.90;;;1.20;;
19006;SDS011;9636;47.382;8.480;2023-11-21T03:46:02;1.37;;;1.27;;
19006;SDS011;9636;47.382;8.480;2023-11-21T03:48:28;1.70;;;1.17;;
19006;SDS011;9636;47.382;8.480;2023-11-21T03:50:57;1.13;;;1.00;;
19006;SDS011;9636;47.382;8.480;2023-11-21T03:53:23;1.87;;;1.20;;
19006;SDS011;9636;47.382;8.480;2023-11-21T03:55:50;2.87;;;1.00;;
19006;SDS011;9636;47.382;8.480;2023-11-21T03:58:17;1.20;;;1.10;;
19006;SDS011;9636;47.382;8.480;2023-11-21T04:00:46;1.90;;;1.27;;
19006;SDS011;9636;47.382;8.480;2023-11-21T04:03:14;1.23;;;1.10;;
19006;SDS011;9636;47.382;8.480;2023-11-21T04:05:40;1.67;;;1.07;;
19006;SDS011;9636;47.382;8.480;2023-11-21T04:08:09;1.40;;;1.20;;
19006;SDS011;9636;47.382;8.480;2023-11-21T04:10:35;1.60;;;1.03;;
19006;SDS011;9636;47.382;8.480;2023-11-21T04:13:04;2.23;;;1.10;;
19006;SDS011;9636;47.382;8.480;2023-11-21T04:15:31;1.87;;;1.13;;
19006;SDS011;9636;47.382;8.480;2023-11-21T04:17:58;2.13;;;1.20;;
19006;SDS011;9636;47.382;8.480;2023-11-21T04:20:25;1.23;;;0.90;;
19006;SDS011;9636;47.382;8.480;2023-11-21T04:22:52;1.50;;;1.00;;
19006;SDS011;9636;47.382;8.480;2023-11-21T04:25:20;1.33;;;1.10;;
19006;SDS011;9636;47.382;8.480;2023-11-21T04:27:48;1.93;;;1.27;;
19006;SDS011;9636;47.382;8.480;2023-11-21T04:30:15;1.20;;;1.10;;
19006;SDS011;9636;47.382;8.480;2023-11-21T04:32:42;1.30;;;1.20;;
19006;SDS011;9636;47.382;8.480;2023-11-21T04:35:09;1.70;;;1.20;;
19006;SDS011;9636;47.382;8.480;2023-11-21T04:37:36;1.57;;;1.03;;
19006;SDS011;9636;47.382;8.480;2023-11-21T04:40:03;1.07;;;0.97;;
19006;SDS011;9636;47.382;8.480;2023-11-21T04:42:34;1.10;;;0.93;;
19006;SDS011;9636;47.382;8.480;2023-11-21T04:45:01;2.33;;;1.10;;
19006;SDS011;9636;47.382;8.480;2023-11-21T04:47:32;1.47;;;1.13;;
19006;SDS011;9636;47.382;8.480;2023-11-21T04:49:59;2.47;;;1.00;;
19006;SDS011;9636;47.382;8.480;2023-11-21T04:52:25;1.63;;;1.03;;
19006;SDS011;9636;47.382;8.480;2023-11-21T04:54:52;1.10;;;1.00;;
19006;SDS011;9636;47.382;8.480;2023-11-21T04:57:20;1.30;;;0.90;;
19006;SDS011;9636;47.382;8.480;2023-11-21T04:59:49;1.13;;;1.07;;
19006;SDS011;9636;47.382;8.480;2023-11-21T05:02:15;1.30;;;1.20;;
19006;SDS011;9636;47.382;8.480;2023-11-21T05:04:44;1.43;;;0.93;;
19006;SDS011;9636;47.382;8.480;2023-11-21T05:07:11;1.37;;;1.17;;
19006;SDS011;9636;47.382;8.480;2023-11-21T05:09:40;1.17;;;1.00;;
19006;SDS011;9636;47.382;8.480;2023-11-21T05:12:09;0.93;;;0.90;;
19006;SDS011;9636;47.382;8.480;2023-11-21T05:14:36;1.40;;;1.00;;
19006;SDS011;9636;47.382;8.480;2023-11-21T05:17:05;1.03;;;0.97;;
19006;SDS011;9636;47.382;8.480;2023-11-21T05:19:33;1.63;;;0.93;;
19006;SDS011;9636;47.382;8.480;2023-11-21T05:22:00;1.13;;;1.03;;
19006;SDS011;9636;47.382;8.480;2023-11-21T05:24:27;1.13;;;1.10;;
19006;SDS011;9636;47.382;8.480;2023-11-21T05:26:54;0.87;;;0.87;;
19006;SDS011;9636;47.382;8.480;2023-11-21T05:29:21;1.20;;;1.03;;
19006;SDS011;9636;47.382;8.480;2023-11-21T05:31:48;0.90;;;0.90;;
19006;SDS011;9636;47.382;8.480;2023-11-21T05:34:16;1.17;;;0.93;;
19006;SDS011;9636;47.382;8.480;2023-11-21T05:36:43;1.13;;;0.90;;
19006;SDS011;9636;47.382;8.480;2023-11-21T05:39:10;1.13;;;1.03;;
19006;SDS011;9636;47.382;8.480;2023-11-21T05:41:37;1.03;;;0.90;;
19006;SDS011;9636;47.382;8.480;2023-11-21T05:44:04;0.93;;;0.80;;
19006;SDS011;9636;47.382;8.480;2023-11-21T05:46:31;1.30;;;1.00;;
19006;SDS011;9636;47.382;8.480;2023-11-21T05:48:58;1.57;;;1.10;;
19006;SDS011;9636;47.382;8.480;2023-11-21T05:51:26;1.60;;;1.00;;
19006;SDS011;9636;47.382;8.480;2023-11-21T05:53:53;1.33;;;0.90;;
19006;SDS011;9636;47.382;8.480;2023-11-21T05:56:20;1.30;;;1.10;;
19006;SDS011;9636;47.382;8.480;2023-11-21T05:58:46;1.90;;;1.03;;
19006;SDS011;9636;47.382;8.480;2023-11-21T06:01:13;1.13;;;1.00;;
19006;SDS011;9636;47.382;8.480;2023-11-21T06:03:40;1.17;;;0.90;;
19006;SDS011;9636;47.382;8.480;2023-11-21T06:06:08;2.07;;;1.03;;
19006;SDS011;9636;47.382;8.480;2023-11-21T06:08:36;1.40;;;0.90;;
19006;SDS011;9636;47.382;8.480;2023-11-21T06:11:03;1.33;;;1.00;;
19006;SDS011;9636;47.382;8.480;2023-11-21T06:13:30;1.17;;;0.97;;
19006;SDS011;9636;47.382;8.480;2023-11-21T06:15:57;0.93;;;0.80;;
19006;SDS011;9636;47.382;8.480;2023-11-21T06:18:23;1.73;;;1.00;;
19006;SDS011;9636;47.382;8.480;2023-11-21T06:20:50;1.30;;;1.00;;
19006;SDS011;9636;47.382;8.480;2023-11-21T06:23:18;1.00;;;0.90;;
19006;SDS011;9636;47.382;8.480;2023-11-21T06:25:46;1.47;;;1.00;;
19006;SDS011;9636;47.382;8.480;2023-11-21T06:28:13;1.10;;;0.90;;
19006;SDS011;9636;47.382;8.480;2023-11-21T06:30:42;0.70;;;0.70;;
19006;SDS011;9636;47.382;8.480;2023-11-21T06:33:10;1.00;;;0.90;;
19006;SDS011;9636;47.382;8.480;2023-11-21T06:35:37;0.70;;;0.70;;
19006;SDS011;9636;47.382;8.480;2023-11-21T06:38:05;0.80;;;0.80;;
19006;SDS011;9636;47.382;8.480;2023-11-21T06:40:31;1.20;;;0.90;;
19006;SDS011;9636;47.382;8.480;2023-11-21T06:43:00;1.37;;;1.10;;
19006;SDS011;9636;47.382;8.480;2023-11-21T06:45:27;0.90;;;0.80;;
19006;SDS011;9636;47.382;8.480;2023-11-21T06:47:54;1.07;;;0.90;;
19006;SDS011;9636;47.382;8.480;2023-11-21T06:50:21;1.30;;;0.87;;
19006;SDS011;9636;47.382;8.480;2023-11-21T06:52:47;1.80;;;1.03;;
19006;SDS011;9636;47.382;8.480;2023-11-21T06:55:14;1.73;;;1.07;;
19006;SDS011;9636;47.382;8.480;2023-11-21T06:57:42;1.23;;;0.80;;
19006;SDS011;9636;47.382;8.480;2023-11-21T07:00:11;1.30;;;0.90;;
19006;SDS011;9636;47.382;8.480;2023-11-21T07:02:39;0.80;;;0.80;;
19006;SDS011;9636;47.382;8.480;2023-11-21T07:05:06;1.07;;;0.90;;
19006;SDS011;9636;47.382;8.480;2023-11-21T07:07:33;2.27;;;1.10;;
19006;SDS011;9636;47.382;8.480;2023-11-21T07:10:02;1.00;;;0.90;;
19006;SDS011;9636;47.382;8.480;2023-11-21T07:12:30;0.70;;;0.70;;
19006;SDS011;9636;47.382;8.480;2023-11-21T07:14:57;0.90;;;0.90;;
19006;SDS011;9636;47.382;8.480;2023-11-21T07:17:25;0.90;;;0.90;;
19006;SDS011;9636;47.382;8.480;2023-11-21T07:19:52;0.80;;;0.77;;
19006;SDS011;9636;47.382;8.480;2023-11-21T07:22:20;1.80;;;0.90;;
19006;SDS011;9636;47.382;8.480;2023-11-21T07:24:48;0.87;;;0.83;;
19006;SDS011;9636;47.382;8.480;2023-11-21T07:27:16;1.40;;;1.00;;
19006;SDS011;9636;47.382;8.480;2023-11-21T07:29:43;2.47;;;0.90;;
19006;SDS011;9636;47.382;8.480;2023-11-21T07:32:10;1.10;;;1.00;;
19006;SDS011;9636;47.382;8.480;2023-11-21T07:34:39;1.47;;;1.07;;
19006;SDS011;9636;47.382;8.480;2023-11-21T07:37:06;1.10;;;0.90;;
19006;SDS011;9636;47.382;8.480;2023-11-21T07:39:33;1.97;;;1.10;;
19006;SDS011;9636;47.382;8.480;2023-11-21T07:42:00;1.53;;;0.80;;
19006;SDS011;9636;47.382;8.480;2023-11-21T07:44:29;1.93;;;0.90;;
19006;SDS011;9636;47.382;8.480;2023-11-21T07:46:56;0.73;;;0.73;;
19006;SDS011;9636;47.382;8.480;2023-11-21T07:49:23;1.13;;;0.90;;
19006;SDS011;9636;47.382;8.480;2023-11-21T07:51:51;2.10;;;1.00;;
19006;SDS011;9636;47.382;8.480;2023-11-21T07:54:18;1.17;;;0.90;;
19006;SDS011;9636;47.382;8.480;2023-11-21T07:56:46;1.17;;;0.90;;
19006;SDS011;9636;47.382;8.480;2023-11-21T07:59:13;2.33;;;0.90;;
19006;SDS011;9636;47.382;8.480;2023-11-21T08:01:40;1.63;;;0.87;;
19006;SDS011;9636;47.382;8.480;2023-11-21T08:04:08;1.00;;;0.90;;
19006;SDS011;9636;47.382;8.480;2023-11-21T08:06:35;1.20;;;1.00;;
19006;SDS011;9636;47.382;8.480;2023-11-21T08:09:03;2.53;;;1.00;;
19006;SDS011;9636;47.382;8.480;2023-11-21T08:11:30;1.20;;;0.90;;
19006;SDS011;9636;47.382;8.480;2023-11-21T08:13:58;1.83;;;1.23;;
19006;SDS011;9636;47.382;8.480;2023-11-21T08:16:25;1.63;;;1.10;;
19006;SDS011;9636;47.382;8.480;2023-11-21T08:18:52;0.90;;;0.73;;
19006;SDS011;9636;47.382;8.480;2023-11-21T08:21:19;0.90;;;0.73;;
19006;SDS011;9636;47.382;8.480;2023-11-21T08:23:48;0.90;;;0.80;;
19006;SDS011;9636;47.382;8.480;2023-11-21T08:26:20;1.50;;;1.13;;
19006;SDS011;9636;47.382;8.480;2023-11-21T08:28:47;1.13;;;1.07;;
19006;SDS011;9636;47.382;8.480;2023-11-21T08:31:14;1.00;;;0.90;;
19006;SDS011;9636;47.382;8.480;2023-11-21T08:33:41;1.00;;;0.80;;
19006;SDS011;9636;47.382;8.480;2023-11-21T08:36:08;0.93;;;0.90;;
19006;SDS011;9636;47.382;8.480;2023-11-21T08:38:37;3.00;;;1.20;;
19006;SDS011;9636;47.382;8.480;2023-11-21T08:41:04;0.80;;;0.80;;
19006;SDS011;9636;47.382;8.480;2023-11-21T08:43:35;1.10;;;1.00;;
19006;SDS011;9636;47.382;8.480;2023-11-21T08:46:04;1.03;;;0.90;;
19006;SDS011;9636;47.382;8.480;2023-11-21T08:48:31;0.90;;;0.90;;
19006;SDS011;9636;47.382;8.480;2023-11-21T08:50:58;1.13;;;0.90;;
19006;SDS011;9636;47.382;8.480;2023-11-21T08:53:25;1.53;;;1.00;;
19006;SDS011;9636;47.382;8.480;2023-11-21T08:55:52;0.93;;;0.83;;
19006;SDS011;9636;47.382;8.480;2023-11-21T08:58:19;1.17;;;1.07;;
19006;SDS011;9636;47.382;8.480;2023-11-21T09:00:48;0.80;;;0.80;;
19006;SDS011;9636;47.382;8.480;2023-11-21T09:03:14;1.13;;;0.70;;
19006;SDS011;9636;47.382;8.480;2023-11-21T09:05:41;0.80;;;0.80;;
19006;SDS011;9636;47.382;8.480;2023-11-21T09:08:09;1.80;;;1.00;;
19006;SDS011;9636;47.382;8.480;2023-11-21T09:10:36;0.77;;;0.77;;
19006;SDS011;9636;47.382;8.480;2023-11-21T09:13:04;0.90;;;0.90;;
19006;SDS011;9636;47.382;8.480;2023-11-21T09:15:34;0.80;;;0.80;;
19006;SDS011;9636;47.382;8.480;2023-11-21T09:18:02;0.90;;;0.90;;
19006;SDS011;9636;47.382;8.480;2023-11-21T09:20:30;0.93;;;0.80;;
19006;SDS011;9636;47.382;8.480;2023-11-21T09:22:57;1.00;;;0.90;;
19006;SDS011;9636;47.382;8.480;2023-11-21T09:25:23;1.10;;;0.73;;
19006;SDS011;9636;47.382;8.480;2023-11-21T09:27:50;1.63;;;0.70;;
19006;SDS011;9636;47.382;8.480;2023-11-21T09:30:17;1.07;;;0.90;;
19006;SDS011;9636;47.382;8.480;2023-11-21T09:32:45;1.53;;;1.00;;
19006;SDS011;9636;47.382;8.480;2023-11-21T09:35:13;0.80;;;0.80;;
19006;SDS011;9636;47.382;8.480;2023-11-21T09:37:41;1.10;;;1.00;;
19006;SDS011;9636;47.382;8.480;2023-11-21T09:40:09;0.73;;;0.63;;
19006;SDS011;9636;47.382;8.480;2023-11-21T09:42:39;1.10;;;0.83;;
19006;SDS011;9636;47.382;8.480;2023-11-21T09:45:12;1.33;;;1.00;;
19006;SDS011;9636;47.382;8.480;2023-11-21T09:47:43;1.57;;;0.83;;
19006;SDS011;9636;47.382;8.480;2023-11-21T09:50:10;1.10;;;1.00;;
19006;SDS011;9636;47.382;8.480;2023-11-21T09:52:44;1.70;;;1.00;;
19006;SDS011;9636;47.382;8.480;2023-11-21T09:55:20;0.80;;;0.80;;
19006;SDS011;9636;47.382;8.480;2023-11-21T09:57:48;0.87;;;0.87;;
19006;SDS011;9636;47.382;8.480;2023-11-21T10:00:15;1.37;;;0.93;;
19006;SDS011;9636;47.382;8.480;2023-11-21T10:02:45;0.70;;;0.70;;
19006;SDS011;9636;47.382;8.480;2023-11-21T10:05:14;1.27;;;0.87;;
19006;SDS011;9636;47.382;8.480;2023-11-21T10:07:43;2.00;;;0.90;;
19006;SDS011;9636;47.382;8.480;2023-11-21T10:10:12;0.80;;;0.80;;
19006;SDS011;9636;47.382;8.480;2023-11-21T10:12:44;0.80;;;0.70;;
19006;SDS011;9636;47.382;8.480;2023-11-21T10:15:16;0.70;;;0.70;;
19006;SDS011;9636;47.382;8.480;2023-11-21T10:17:43;2.27;;;0.90;;
19006;SDS011;9636;47.382;8.480;2023-11-21T10:20:11;0.80;;;0.80;;
19006;SDS011;9636;47.382;8.480;2023-11-21T10:22:38;1.37;;;0.90;;
19006;SDS011;9636;47.382;8.480;2023-11-21T10:25:08;0.93;;;0.80;;
19006;SDS011;9636;47.382;8.480;2023-11-21T10:27:36;0.87;;;0.87;;
19006;SDS011;9636;47.382;8.480;2023-11-21T10:30:04;1.20;;;0.80;;
19006;SDS011;9636;47.382;8.480;2023-11-21T10:32:32;0.80;;;0.80;;
19006;SDS011;9636;47.382;8.480;2023-11-21T10:34:59;0.70;;;0.70;;
19006;SDS011;9636;47.382;8.480;2023-11-21T10:37:31;1.17;;;0.90;;
19006;SDS011;9636;47.382;8.480;2023-11-21T10:39:58;1.27;;;0.90;;
19006;SDS011;9636;47.382;8.480;2023-11-21T10:42:26;0.83;;;0.80;;
19006;SDS011;9636;47.382;8.480;2023-11-21T10:44:55;1.10;;;1.00;;
19006;SDS011;9636;47.382;8.480;2023-11-21T10:47:22;1.57;;;0.80;;
19006;SDS011;9636;47.382;8.480;2023-11-21T10:49:49;0.83;;;0.70;;
19006;SDS011;9636;47.382;8.480;2023-11-21T10:52:16;0.97;;;0.90;;
19006;SDS011;9636;47.382;8.480;2023-11-21T10:54:45;1.13;;;0.83;;
19006;SDS011;9636;47.382;8.480;2023-11-21T10:57:13;1.20;;;1.10;;
19006;SDS011;9636;47.382;8.480;2023-11-21T10:59:47;1.43;;;0.80;;
19006;SDS011;9636;47.382;8.480;2023-11-21T11:02:17;0.70;;;0.67;;
19006;SDS011;9636;47.382;8.480;2023-11-21T11:04:50;0.90;;;0.90;;
19006;SDS011;9636;47.382;8.480;2023-11-21T11:07:18;0.80;;;0.70;;
19006;SDS011;9636;47.382;8.480;2023-11-21T11:09:47;0.60;;;0.60;;
19006;SDS011;9636;47.382;8.480;2023-11-21T11:12:14;0.60;;;0.60;;
19006;SDS011;9636;47.382;8.480;2023-11-21T11:14:42;1.07;;;0.80;;
19006;SDS011;9636;47.382;8.480;2023-11-21T11:17:11;0.90;;;0.70;;
19006;SDS011;9636;47.382;8.480;2023-11-21T11:19:39;0.73;;;0.73;;
19006;SDS011;9636;47.382;8.480;2023-11-21T11:22:08;1.53;;;0.90;;
19006;SDS011;9636;47.382;8.480;2023-11-21T11:24:50;1.33;;;0.70;;
19006;SDS011;9636;47.382;8.480;2023-11-21T11:27:40;0.98;;;0.70;;
19006;SDS011;9636;47.382;8.480;2023-11-21T11:30:15;0.97;;;0.70;;
19006;SDS011;9636;47.382;8.480;2023-11-21T11:32:53;0.70;;;0.70;;
19006;SDS011;9636;47.382;8.480;2023-11-21T11:35:26;0.70;;;0.70;;
19006;SDS011;9636;47.382;8.480;2023-11-21T11:38:01;0.70;;;0.70;;
19006;SDS011;9636;47.382;8.480;2023-11-21T11:40:38;0.87;;;0.87;;
19006;SDS011;9636;47.382;8.480;2023-11-21T11:43:06;1.00;;;0.70;;
19006;SDS011;9636;47.382;8.480;2023-11-21T11:45:33;0.67;;;0.67;;
19006;SDS011;9636;47.382;8.480;2023-11-21T11:48:07;0.77;;;0.60;;
19006;SDS011;9636;47.382;8.480;2023-11-21T11:50:41;0.93;;;0.60;;
19006;SDS011;9636;47.382;8.480;2023-11-21T11:53:28;1.37;;;0.90;;
19006;SDS011;9636;47.382;8.480;2023-11-21T11:58:51;0.85;;;0.85;;
19006;SDS011;9636;47.382;8.480;2023-11-21T12:01:18;1.33;;;0.80;;
19006;SDS011;9636;47.382;8.480;2023-11-21T12:06:50;1.47;;;0.90;;
19006;SDS011;9636;47.382;8.480;2023-11-21T12:09:18;0.80;;;0.80;;
19006;SDS011;9636;47.382;8.480;2023-11-21T12:11:46;0.70;;;0.70;;
19006;SDS011;9636;47.382;8.480;2023-11-21T12:14:13;0.80;;;0.80;;
19006;SDS011;9636;47.382;8.480;2023-11-21T12:16:41;1.00;;;0.70;;
19006;SDS011;9636;47.382;8.480;2023-11-21T12:19:09;0.70;;;0.70;;
19006;SDS011;9636;47.382;8.480;2023-11-21T12:21:36;1.80;;;0.90;;
19006;SDS011;9636;47.382;8.480;2023-11-21T12:24:05;1.00;;;0.73;;
19006;SDS011;9636;47.382;8.480;2023-11-21T12:26:33;0.77;;;0.70;;
19006;SDS011;9636;47.382;8.480;2023-11-21T12:29:01;0.87;;;0.70;;
19006;SDS011;9636;47.382;8.480;2023-11-21T12:31:29;0.80;;;0.80;;
19006;SDS011;9636;47.382;8.480;2023-11-21T12:33:56;0.60;;;0.60;;
19006;SDS011;9636;47.382;8.480;2023-11-21T12:36:24;0.80;;;0.80;;
19006;SDS011;9636;47.382;8.480;2023-11-21T12:38:51;0.80;;;0.80;;
19006;SDS011;9636;47.382;8.480;2023-11-21T12:41:19;0.93;;;0.80;;
19006;SDS011;9636;47.382;8.480;2023-11-21T12:43:47;0.70;;;0.70;;
19006;SDS011;9636;47.382;8.480;2023-11-21T12:46:14;0.80;;;0.73;;
19006;SDS011;9636;47.382;8.480;2023-11-21T12:48:42;1.23;;;0.90;;
19006;SDS011;9636;47.382;8.480;2023-11-21T12:51:10;1.53;;;0.90;;
19006;SDS011;9636;47.382;8.480;2023-11-21T12:53:39;1.03;;;0.80;;
19006;SDS011;9636;47.382;8.480;2023-11-21T12:56:06;1.00;;;0.70;;
19006;SDS011;9636;47.382;8.480;2023-11-21T12:58:36;0.60;;;0.60;;
19006;SDS011;9636;47.382;8.480;2023-11-21T13:01:04;0.80;;;0.80;;
19006;SDS011;9636;47.382;8.480;2023-11-21T13:03:37;1.00;;;0.90;;
19006;SDS011;9636;47.382;8.480;2023-11-21T13:06:05;0.70;;;0.70;;
19006;SDS011;9636;47.382;8.480;2023-11-21T13:08:33;0.93;;;0.63;;
19006;SDS011;9636;47.382;8.480;2023-11-21T13:11:00;0.70;;;0.70;;
19006;SDS011;9636;47.382;8.480;2023-11-21T13:13:31;0.70;;;0.70;;
19006;SDS011;9636;47.382;8.480;2023-11-21T13:15:59;0.80;;;0.80;;
19006;SDS011;9636;47.382;8.480;2023-11-21T13:18:29;0.87;;;0.77;;
19006;SDS011;9636;47.382;8.480;2023-11-21T13:20:57;0.80;;;0.80;;
19006;SDS011;9636;47.382;8.480;2023-11-21T13:23:25;1.13;;;0.70;;
19006;SDS011;9636;47.382;8.480;2023-11-21T13:25:54;0.93;;;0.80;;
19006;SDS011;9636;47.382;8.480;2023-11-21T13:28:21;0.80;;;0.80;;
19006;SDS011;9636;47.382;8.480;2023-11-21T13:30:49;0.80;;;0.80;;
19006;SDS011;9636;47.382;8.480;2023-11-21T13:33:19;0.80;;;0.80;;
19006;SDS011;9636;47.382;8.480;2023-11-21T13:35:52;0.87;;;0.87;;
19006;SDS011;9636;47.382;8.480;2023-11-21T13:38:20;0.77;;;0.77;;
19006;SDS011;9636;47.382;8.480;2023-11-21T13:40:48;0.80;;;0.70;;
19006;SDS011;9636;47.382;8.480;2023-11-21T13:43:19;0.90;;;0.90;;
19006;SDS011;9636;47.382;8.480;2023-11-21T13:45:47;0.80;;;0.80;;
19006;SDS011;9636;47.382;8.480;2023-11-21T13:48:18;0.70;;;0.70;;
19006;SDS011;9636;47.382;8.480;2023-11-21T13:50:53;0.67;;;0.67;;
19006;SDS011;9636;47.382;8.480;2023-11-21T13:53:23;1.20;;;0.70;;
19006;SDS011;9636;47.382;8.480;2023-11-21T13:55:51;0.70;;;0.70;;
19006;SDS011;9636;47.382;8.480;2023-11-21T13:58:19;0.63;;;0.63;;
19006;SDS011;9636;47.382;8.480;2023-11-21T14:00:51;1.67;;;1.00;;
19006;SDS011;9636;47.382;8.480;2023-11-21T14:03:23;0.80;;;0.70;;
19006;SDS011;9636;47.382;8.480;2023-11-21T14:05:57;0.90;;;0.90;;
19006;SDS011;9636;47.382;8.480;2023-11-21T14:08:25;0.70;;;0.70;;
19006;SDS011;9636;47.382;8.480;2023-11-21T14:10:53;0.60;;;0.60;;
19006;SDS011;9636;47.382;8.480;2023-11-21T14:13:22;0.63;;;0.63;;
19006;SDS011;9636;47.382;8.480;2023-11-21T14:15:49;0.73;;;0.70;;
19006;SDS011;9636;47.382;8.480;2023-11-21T14:18:24;0.63;;;0.63;;
19006;SDS011;9636;47.382;8.480;2023-11-21T14:20:55;0.70;;;0.70;;
19006;SDS011;9636;47.382;8.480;2023-11-21T14:23:22;0.90;;;0.90;;
19006;SDS011;9636;47.382;8.480;2023-11-21T14:25:49;0.50;;;0.50;;
19006;SDS011;9636;47.382;8.480;2023-11-21T14:28:17;0.70;;;0.70;;
19006;SDS011;9636;47.382;8.480;2023-11-21T14:30:44;0.70;;;0.70;;
19006;SDS011;9636;47.382;8.480;2023-11-21T14:33:11;0.50;;;0.50;;
19006;SDS011;9636;47.382;8.480;2023-11-21T14:35:40;0.60;;;0.60;;
19006;SDS011;9636;47.382;8.480;2023-11-21T14:38:07;0.60;;;0.60;;
19006;SDS011;9636;47.382;8.480;2023-11-21T14:40:35;0.70;;;0.70;;
19006;SDS011;9636;47.382;8.480;2023-11-21T14:43:02;0.77;;;0.77;;
19006;SDS011;9636;47.382;8.480;2023-11-21T14:45:30;0.60;;;0.60;;
19006;SDS011;9636;47.382;8.480;2023-11-21T14:47:57;0.73;;;0.70;;
19006;SDS011;9636;47.382;8.480;2023-11-21T14:50:31;0.70;;;0.70;;
19006;SDS011;9636;47.382;8.480;2023-11-21T14:53:15;1.30;;;0.80;;
19006;SDS011;9636;47.382;8.480;2023-11-21T14:55:54;0.63;;;0.63;;
19006;SDS011;9636;47.382;8.480;2023-11-21T14:58:23;0.80;;;0.80;;
19006;SDS011;9636;47.382;8.480;2023-11-21T15:00:53;0.60;;;0.60;;
19006;SDS011;9636;47.382;8.480;2023-11-21T15:03:23;0.70;;;0.70;;
19006;SDS011;9636;47.382;8.480;2023-11-21T15:06:13;0.80;;;0.80;;
19006;SDS011;9636;47.382;8.480;2023-11-21T15:08:53;0.80;;;0.80;;
19006;SDS011;9636;47.382;8.480;2023-11-21T15:11:43;0.60;;;0.60;;
19006;SDS011;9636;47.382;8.480;2023-11-21T15:14:09;0.67;;;0.67;;